ノーフォーク島 の空港の天気 - METARとTAF

ノーフォーク島空港 ( YSNF / NLK ) - ノーフォーク島 ノーフォーク島
飛行場実況気象(Metar)
観測時間11/13 13:00 NFT (11/13 02:00 UTC)
風向・風速北 5m/s
視程10km以上
天気現象
全天の4割程度の雲 雲底高度 850m
気温21℃
湿度64%
気圧1016hPa
METARYSNF 130200Z AUTO 35009KT 9999 // SCT028 21/14 Q1016
過去の天気等 Google飛行場航空写真 Wunderground天気予報

過去48時間のMETAR

飛行場予報(TAF)
発表時間: 11/13 10:13 NFT (11/12 23:13 UTC)
予報対象時間: 13日11時 NFT ~ 14日11時 NFT
風向・風速北西 6m/s
視程10km以上
全天の4割程度の雲 雲底高度 1220m
14日1時 NFT から
風向・風速北西 8m/s 瞬間風速 13m/s
視程10km以上
少しの雲 雲底高度 910m
TAF YSNF 122313Z 1300/1400 32012KT 9999 SCT040
FM131400 32015G25KT 9999 FEW030